sensor_id;sensor_type;location;lat;lon;timestamp;temperature;humidity
18506;DHT22;9382;53.242;10.438;2023-03-14T00:00:07;11.80;99.90
18506;DHT22;9382;53.242;10.438;2023-03-14T00:02:35;11.90;99.90
18506;DHT22;9382;53.242;10.438;2023-03-14T00:05:02;11.90;99.90
18506;DHT22;9382;53.242;10.438;2023-03-14T00:07:32;12.00;99.90
18506;DHT22;9382;53.242;10.438;2023-03-14T00:10:01;12.00;99.90
18506;DHT22;9382;53.242;10.438;2023-03-14T00:12:27;12.10;99.90
18506;DHT22;9382;53.242;10.438;2023-03-14T00:14:55;12.10;99.90
18506;DHT22;9382;53.242;10.438;2023-03-14T00:17:22;12.10;99.90
18506;DHT22;9382;53.242;10.438;2023-03-14T00:19:49;12.10;99.90
18506;DHT22;9382;53.242;10.438;2023-03-14T00:22:19;12.10;99.90
18506;DHT22;9382;53.242;10.438;2023-03-14T00:24:45;12.10;99.90
18506;DHT22;9382;53.242;10.438;2023-03-14T00:27:12;12.00;99.90
18506;DHT22;9382;53.242;10.438;2023-03-14T00:29:39;12.00;99.90
18506;DHT22;9382;53.242;10.438;2023-03-14T00:32:07;12.00;99.90
18506;DHT22;9382;53.242;10.438;2023-03-14T00:34:34;12.00;99.90
18506;DHT22;9382;53.242;10.438;2023-03-14T00:37:00;12.10;99.90
18506;DHT22;9382;53.242;10.438;2023-03-14T00:39:27;12.10;99.90
18506;DHT22;9382;53.242;10.438;2023-03-14T00:41:54;12.10;99.90
18506;DHT22;9382;53.242;10.438;2023-03-14T00:44:20;12.10;99.90
18506;DHT22;9382;53.242;10.438;2023-03-14T00:46:47;12.10;99.90
18506;DHT22;9382;53.242;10.438;2023-03-14T00:49:15;12.10;99.90
18506;DHT22;9382;53.242;10.438;2023-03-14T00:51:42;12.00;99.90
18506;DHT22;9382;53.242;10.438;2023-03-14T00:54:08;11.90;99.90
18506;DHT22;9382;53.242;10.438;2023-03-14T00:56:35;11.80;99.90
18506;DHT22;9382;53.242;10.438;2023-03-14T00:59:02;11.70;99.90
18506;DHT22;9382;53.242;10.438;2023-03-14T01:01:28;11.70;99.90
18506;DHT22;9382;53.242;10.438;2023-03-14T01:03:55;11.60;99.90
18506;DHT22;9382;53.242;10.438;2023-03-14T01:06:25;11.60;99.90
18506;DHT22;9382;53.242;10.438;2023-03-14T01:08:52;11.50;99.90
18506;DHT22;9382;53.242;10.438;2023-03-14T01:11:21;11.50;99.90
18506;DHT22;9382;53.242;10.438;2023-03-14T01:13:47;11.50;99.90
18506;DHT22;9382;53.242;10.438;2023-03-14T01:16:15;11.60;99.90
18506;DHT22;9382;53.242;10.438;2023-03-14T01:18:43;11.60;99.90
18506;DHT22;9382;53.242;10.438;2023-03-14T01:21:13;11.60;99.90
18506;DHT22;9382;53.242;10.438;2023-03-14T01:23:41;11.70;99.90
18506;DHT22;9382;53.242;10.438;2023-03-14T01:26:09;11.70;99.90
18506;DHT22;9382;53.242;10.438;2023-03-14T01:28:36;11.70;99.90
18506;DHT22;9382;53.242;10.438;2023-03-14T01:31:04;11.70;99.90
18506;DHT22;9382;53.242;10.438;2023-03-14T01:33:30;11.60;99.90
18506;DHT22;9382;53.242;10.438;2023-03-14T01:35:57;11.60;99.90
18506;DHT22;9382;53.242;10.438;2023-03-14T01:38:24;11.60;99.90
18506;DHT22;9382;53.242;10.438;2023-03-14T01:40:52;11.60;99.90
18506;DHT22;9382;53.242;10.438;2023-03-14T01:43:20;11.70;99.90
18506;DHT22;9382;53.242;10.438;2023-03-14T01:46:21;11.70;99.90
18506;DHT22;9382;53.242;10.438;2023-03-14T01:48:54;11.60;99.90
18506;DHT22;9382;53.242;10.438;2023-03-14T01:51:26;11.60;99.90
18506;DHT22;9382;53.242;10.438;2023-03-14T01:54:02;11.50;99.90
18506;DHT22;9382;53.242;10.438;2023-03-14T01:56:31;11.60;99.90
18506;DHT22;9382;53.242;10.438;2023-03-14T01:58:59;11.60;99.90
18506;DHT22;9382;53.242;10.438;2023-03-14T02:01:28;11.50;99.90
18506;DHT22;9382;53.242;10.438;2023-03-14T02:03:58;11.50;99.90
18506;DHT22;9382;53.242;10.438;2023-03-14T02:06:31;11.50;99.90
18506;DHT22;9382;53.242;10.438;2023-03-14T02:09:00;11.40;99.90
18506;DHT22;9382;53.242;10.438;2023-03-14T02:11:30;11.20;99.90
18506;DHT22;9382;53.242;10.438;2023-03-14T02:13:57;11.10;99.90
18506;DHT22;9382;53.242;10.438;2023-03-14T02:16:25;11.00;99.90
18506;DHT22;9382;53.242;10.438;2023-03-14T02:18:52;11.00;99.90
18506;DHT22;9382;53.242;10.438;2023-03-14T02:21:23;10.80;99.90
18506;DHT22;9382;53.242;10.438;2023-03-14T02:24:00;10.70;99.90
18506;DHT22;9382;53.242;10.438;2023-03-14T02:26:34;10.60;99.90
18506;DHT22;9382;53.242;10.438;2023-03-14T02:29:04;10.50;99.90
18506;DHT22;9382;53.242;10.438;2023-03-14T02:31:31;10.40;99.90
18506;DHT22;9382;53.242;10.438;2023-03-14T02:33:59;10.30;99.90
18506;DHT22;9382;53.242;10.438;2023-03-14T02:36:27;10.20;99.90
18506;DHT22;9382;53.242;10.438;2023-03-14T02:39:00;10.10;99.90
18506;DHT22;9382;53.242;10.438;2023-03-14T02:41:29;10.10;99.90
18506;DHT22;9382;53.242;10.438;2023-03-14T02:43:56;10.00;99.90
18506;DHT22;9382;53.242;10.438;2023-03-14T02:46:24;10.00;99.90
18506;DHT22;9382;53.242;10.438;2023-03-14T02:48:54;10.00;99.90
18506;DHT22;9382;53.242;10.438;2023-03-14T02:51:23;9.90;99.90
18506;DHT22;9382;53.242;10.438;2023-03-14T02:53:50;10.00;99.90
18506;DHT22;9382;53.242;10.438;2023-03-14T02:56:16;10.00;99.90
18506;DHT22;9382;53.242;10.438;2023-03-14T02:58:43;10.00;99.90
18506;DHT22;9382;53.242;10.438;2023-03-14T03:01:10;10.00;99.90
18506;DHT22;9382;53.242;10.438;2023-03-14T03:03:38;10.10;99.90
18506;DHT22;9382;53.242;10.438;2023-03-14T03:06:05;10.10;99.90
18506;DHT22;9382;53.242;10.438;2023-03-14T03:08:33;10.10;99.90
18506;DHT22;9382;53.242;10.438;2023-03-14T03:11:00;10.10;99.90
18506;DHT22;9382;53.242;10.438;2023-03-14T03:13:27;10.10;99.90
18506;DHT22;9382;53.242;10.438;2023-03-14T03:15:54;10.10;99.90
18506;DHT22;9382;53.242;10.438;2023-03-14T03:18:20;10.20;99.90
18506;DHT22;9382;53.242;10.438;2023-03-14T03:20:48;10.20;99.90
18506;DHT22;9382;53.242;10.438;2023-03-14T03:23:15;10.20;99.90
18506;DHT22;9382;53.242;10.438;2023-03-14T03:25:42;10.30;99.90
18506;DHT22;9382;53.242;10.438;2023-03-14T03:28:14;10.30;99.90
18506;DHT22;9382;53.242;10.438;2023-03-14T03:30:41;10.30;99.90
18506;DHT22;9382;53.242;10.438;2023-03-14T03:33:08;10.40;99.90
18506;DHT22;9382;53.242;10.438;2023-03-14T03:35:41;10.40;99.90
18506;DHT22;9382;53.242;10.438;2023-03-14T03:38:10;10.50;99.90
18506;DHT22;9382;53.242;10.438;2023-03-14T03:40:37;10.50;99.90
18506;DHT22;9382;53.242;10.438;2023-03-14T03:43:04;10.50;99.90
18506;DHT22;9382;53.242;10.438;2023-03-14T03:45:31;10.50;99.90
18506;DHT22;9382;53.242;10.438;2023-03-14T03:47:58;10.50;99.90
18506;DHT22;9382;53.242;10.438;2023-03-14T03:50:24;10.50;99.90
18506;DHT22;9382;53.242;10.438;2023-03-14T03:52:51;10.60;99.90
18506;DHT22;9382;53.242;10.438;2023-03-14T03:55:19;10.70;99.90
18506;DHT22;9382;53.242;10.438;2023-03-14T03:57:46;10.80;99.90
18506;DHT22;9382;53.242;10.438;2023-03-14T04:00:13;10.80;99.90
18506;DHT22;9382;53.242;10.438;2023-03-14T04:02:40;10.80;99.90
18506;DHT22;9382;53.242;10.438;2023-03-14T04:05:07;10.80;99.90
18506;DHT22;9382;53.242;10.438;2023-03-14T04:07:34;10.80;99.90
18506;DHT22;9382;53.242;10.438;2023-03-14T04:10:01;10.70;99.90
18506;DHT22;9382;53.242;10.438;2023-03-14T04:12:29;10.70;99.90
18506;DHT22;9382;53.242;10.438;2023-03-14T04:14:56;10.70;99.90
18506;DHT22;9382;53.242;10.438;2023-03-14T04:17:22;10.60;99.90
18506;DHT22;9382;53.242;10.438;2023-03-14T04:19:49;10.60;99.90
18506;DHT22;9382;53.242;10.438;2023-03-14T04:22:19;10.60;99.90
18506;DHT22;9382;53.242;10.438;2023-03-14T04:24:46;10.50;99.90
18506;DHT22;9382;53.242;10.438;2023-03-14T04:27:12;10.60;99.90
18506;DHT22;9382;53.242;10.438;2023-03-14T04:29:42;10.60;99.90
18506;DHT22;9382;53.242;10.438;2023-03-14T04:32:08;10.70;99.90
18506;DHT22;9382;53.242;10.438;2023-03-14T04:34:35;10.70;99.90
18506;DHT22;9382;53.242;10.438;2023-03-14T04:37:02;10.70;99.90
18506;DHT22;9382;53.242;10.438;2023-03-14T04:39:29;10.80;99.90
18506;DHT22;9382;53.242;10.438;2023-03-14T04:41:55;10.90;99.90
18506;DHT22;9382;53.242;10.438;2023-03-14T04:44:22;10.90;99.90
18506;DHT22;9382;53.242;10.438;2023-03-14T04:46:50;11.00;99.90
18506;DHT22;9382;53.242;10.438;2023-03-14T04:49:17;11.00;99.90
18506;DHT22;9382;53.242;10.438;2023-03-14T04:51:44;11.10;99.90
18506;DHT22;9382;53.242;10.438;2023-03-14T04:54:10;11.10;99.90
18506;DHT22;9382;53.242;10.438;2023-03-14T04:56:37;11.20;99.90
18506;DHT22;9382;53.242;10.438;2023-03-14T04:59:04;11.10;99.90
18506;DHT22;9382;53.242;10.438;2023-03-14T05:01:31;11.20;99.90
18506;DHT22;9382;53.242;10.438;2023-03-14T05:03:59;11.20;99.90
18506;DHT22;9382;53.242;10.438;2023-03-14T05:06:26;11.20;99.90
18506;DHT22;9382;53.242;10.438;2023-03-14T05:08:53;11.30;99.90
18506;DHT22;9382;53.242;10.438;2023-03-14T05:11:20;11.30;99.90
18506;DHT22;9382;53.242;10.438;2023-03-14T05:13:46;11.30;99.90
18506;DHT22;9382;53.242;10.438;2023-03-14T05:16:13;11.30;99.90
18506;DHT22;9382;53.242;10.438;2023-03-14T05:18:40;11.30;99.90
18506;DHT22;9382;53.242;10.438;2023-03-14T05:21:08;11.30;99.90
18506;DHT22;9382;53.242;10.438;2023-03-14T05:23:34;11.30;99.90
18506;DHT22;9382;53.242;10.438;2023-03-14T05:26:01;11.30;99.90
18506;DHT22;9382;53.242;10.438;2023-03-14T05:28:28;11.20;99.90
18506;DHT22;9382;53.242;10.438;2023-03-14T05:30:55;11.20;99.90
18506;DHT22;9382;53.242;10.438;2023-03-14T05:33:21;11.10;99.90
18506;DHT22;9382;53.242;10.438;2023-03-14T05:35:48;11.00;99.90
18506;DHT22;9382;53.242;10.438;2023-03-14T05:38:16;11.00;99.90
18506;DHT22;9382;53.242;10.438;2023-03-14T05:40:44;11.00;99.90
18506;DHT22;9382;53.242;10.438;2023-03-14T05:43:11;11.00;99.90
18506;DHT22;9382;53.242;10.438;2023-03-14T05:45:38;10.90;99.90
18506;DHT22;9382;53.242;10.438;2023-03-14T05:48:05;10.90;99.90
18506;DHT22;9382;53.242;10.438;2023-03-14T05:50:32;10.80;99.90
18506;DHT22;9382;53.242;10.438;2023-03-14T05:52:59;10.80;99.90
18506;DHT22;9382;53.242;10.438;2023-03-14T05:55:27;10.70;99.90
18506;DHT22;9382;53.242;10.438;2023-03-14T05:57:54;10.70;99.90
18506;DHT22;9382;53.242;10.438;2023-03-14T06:00:22;10.60;99.90
18506;DHT22;9382;53.242;10.438;2023-03-14T06:02:49;10.60;99.90
18506;DHT22;9382;53.242;10.438;2023-03-14T06:05:16;10.60;99.90
18506;DHT22;9382;53.242;10.438;2023-03-14T06:07:42;10.60;99.90
18506;DHT22;9382;53.242;10.438;2023-03-14T06:10:10;10.50;99.90
18506;DHT22;9382;53.242;10.438;2023-03-14T06:12:38;10.50;99.90
18506;DHT22;9382;53.242;10.438;2023-03-14T06:15:06;10.50;99.90
18506;DHT22;9382;53.242;10.438;2023-03-14T06:17:33;10.50;99.90
18506;DHT22;9382;53.242;10.438;2023-03-14T06:19:59;10.60;99.90
18506;DHT22;9382;53.242;10.438;2023-03-14T06:22:26;10.50;99.90
18506;DHT22;9382;53.242;10.438;2023-03-14T06:24:53;10.50;99.90
18506;DHT22;9382;53.242;10.438;2023-03-14T06:27:19;10.60;99.90
18506;DHT22;9382;53.242;10.438;2023-03-14T06:29:47;10.60;99.90
18506;DHT22;9382;53.242;10.438;2023-03-14T06:32:14;10.60;99.90
18506;DHT22;9382;53.242;10.438;2023-03-14T06:34:41;10.60;99.90
18506;DHT22;9382;53.242;10.438;2023-03-14T06:37:08;10.50;99.90
18506;DHT22;9382;53.242;10.438;2023-03-14T06:39:34;10.50;99.90
18506;DHT22;9382;53.242;10.438;2023-03-14T06:42:01;10.50;99.90
18506;DHT22;9382;53.242;10.438;2023-03-14T06:44:28;10.50;99.90
18506;DHT22;9382;53.242;10.438;2023-03-14T06:46:56;10.50;99.90
18506;DHT22;9382;53.242;10.438;2023-03-14T06:49:23;10.50;99.90
18506;DHT22;9382;53.242;10.438;2023-03-14T06:51:50;10.40;99.90
18506;DHT22;9382;53.242;10.438;2023-03-14T06:54:19;10.50;99.90
18506;DHT22;9382;53.242;10.438;2023-03-14T06:56:46;10.40;99.90
18506;DHT22;9382;53.242;10.438;2023-03-14T06:59:12;10.40;99.90
18506;DHT22;9382;53.242;10.438;2023-03-14T07:01:39;10.50;99.90
18506;DHT22;9382;53.242;10.438;2023-03-14T07:04:10;10.50;99.90
18506;DHT22;9382;53.242;10.438;2023-03-14T07:06:36;10.50;99.90
18506;DHT22;9382;53.242;10.438;2023-03-14T07:09:05;10.50;99.90
18506;DHT22;9382;53.242;10.438;2023-03-14T07:11:31;10.40;99.90
18506;DHT22;9382;53.242;10.438;2023-03-14T07:13:58;10.40;99.90
18506;DHT22;9382;53.242;10.438;2023-03-14T07:16:25;10.40;99.90
18506;DHT22;9382;53.242;10.438;2023-03-14T07:18:54;10.30;99.90
18506;DHT22;9382;53.242;10.438;2023-03-14T07:21:22;10.20;99.90
18506;DHT22;9382;53.242;10.438;2023-03-14T07:23:49;10.10;99.90
18506;DHT22;9382;53.242;10.438;2023-03-14T07:26:15;10.00;99.90
18506;DHT22;9382;53.242;10.438;2023-03-14T07:28:42;10.00;99.90
18506;DHT22;9382;53.242;10.438;2023-03-14T07:31:09;10.00;99.90
18506;DHT22;9382;53.242;10.438;2023-03-14T07:33:36;9.90;99.90
18506;DHT22;9382;53.242;10.438;2023-03-14T07:36:03;9.80;99.90
18506;DHT22;9382;53.242;10.438;2023-03-14T07:38:31;9.80;99.90
18506;DHT22;9382;53.242;10.438;2023-03-14T07:40:58;9.80;99.90
18506;DHT22;9382;53.242;10.438;2023-03-14T07:43:26;9.80;99.90
18506;DHT22;9382;53.242;10.438;2023-03-14T07:45:53;9.90;99.90
18506;DHT22;9382;53.242;10.438;2023-03-14T07:48:20;9.90;99.90
18506;DHT22;9382;53.242;10.438;2023-03-14T07:50:50;10.00;99.90
18506;DHT22;9382;53.242;10.438;2023-03-14T07:53:17;10.10;99.90
18506;DHT22;9382;53.242;10.438;2023-03-14T07:55:45;10.20;99.90
18506;DHT22;9382;53.242;10.438;2023-03-14T07:58:13;10.40;99.90
18506;DHT22;9382;53.242;10.438;2023-03-14T08:00:40;10.40;99.90
18506;DHT22;9382;53.242;10.438;2023-03-14T08:03:07;10.60;99.90
18506;DHT22;9382;53.242;10.438;2023-03-14T08:05:34;10.70;99.90
18506;DHT22;9382;53.242;10.438;2023-03-14T08:08:01;10.90;99.90
18506;DHT22;9382;53.242;10.438;2023-03-14T08:10:28;11.00;99.90
18506;DHT22;9382;53.242;10.438;2023-03-14T08:12:58;11.00;99.90
18506;DHT22;9382;53.242;10.438;2023-03-14T08:15:25;11.10;99.90
18506;DHT22;9382;53.242;10.438;2023-03-14T08:17:52;11.30;99.90
18506;DHT22;9382;53.242;10.438;2023-03-14T08:20:20;11.50;99.90
18506;DHT22;9382;53.242;10.438;2023-03-14T08:22:47;11.50;99.90
18506;DHT22;9382;53.242;10.438;2023-03-14T08:25:14;11.60;99.90
18506;DHT22;9382;53.242;10.438;2023-03-14T08:27:42;11.70;99.90
18506;DHT22;9382;53.242;10.438;2023-03-14T08:30:11;11.70;99.90
18506;DHT22;9382;53.242;10.438;2023-03-14T08:32:38;11.90;99.90
18506;DHT22;9382;53.242;10.438;2023-03-14T08:35:06;11.90;99.90
18506;DHT22;9382;53.242;10.438;2023-03-14T08:37:34;11.90;99.90
18506;DHT22;9382;53.242;10.438;2023-03-14T08:40:02;12.00;99.90
18506;DHT22;9382;53.242;10.438;2023-03-14T08:42:31;12.00;99.90
18506;DHT22;9382;53.242;10.438;2023-03-14T08:44:58;12.20;99.90
18506;DHT22;9382;53.242;10.438;2023-03-14T08:47:26;12.20;99.90
18506;DHT22;9382;53.242;10.438;2023-03-14T08:49:53;12.20;99.90
18506;DHT22;9382;53.242;10.438;2023-03-14T08:52:20;12.30;99.90
18506;DHT22;9382;53.242;10.438;2023-03-14T08:54:47;12.50;99.90
18506;DHT22;9382;53.242;10.438;2023-03-14T08:57:13;12.50;99.90
18506;DHT22;9382;53.242;10.438;2023-03-14T08:59:40;12.50;99.90
18506;DHT22;9382;53.242;10.438;2023-03-14T09:02:09;12.30;99.90
18506;DHT22;9382;53.242;10.438;2023-03-14T09:04:38;12.40;99.90
18506;DHT22;9382;53.242;10.438;2023-03-14T09:07:05;12.60;99.90
18506;DHT22;9382;53.242;10.438;2023-03-14T09:09:31;12.90;99.90
18506;DHT22;9382;53.242;10.438;2023-03-14T09:11:58;13.40;99.90
18506;DHT22;9382;53.242;10.438;2023-03-14T09:14:25;13.60;99.90
18506;DHT22;9382;53.242;10.438;2023-03-14T09:16:52;13.60;99.90
18506;DHT22;9382;53.242;10.438;2023-03-14T09:19:19;13.40;99.90
18506;DHT22;9382;53.242;10.438;2023-03-14T09:21:47;13.10;99.90
18506;DHT22;9382;53.242;10.438;2023-03-14T09:24:14;12.90;99.90
18506;DHT22;9382;53.242;10.438;2023-03-14T09:26:41;12.80;99.90
18506;DHT22;9382;53.242;10.438;2023-03-14T09:29:07;12.60;99.90
18506;DHT22;9382;53.242;10.438;2023-03-14T09:31:34;12.50;99.90
18506;DHT22;9382;53.242;10.438;2023-03-14T09:34:01;12.50;99.90
18506;DHT22;9382;53.242;10.438;2023-03-14T09:36:28;12.50;99.90
18506;DHT22;9382;53.242;10.438;2023-03-14T09:38:56;12.50;99.90
18506;DHT22;9382;53.242;10.438;2023-03-14T09:41:25;12.50;99.90
18506;DHT22;9382;53.242;10.438;2023-03-14T09:43:59;12.60;99.90
18506;DHT22;9382;53.242;10.438;2023-03-14T09:46:27;12.70;99.90
18506;DHT22;9382;53.242;10.438;2023-03-14T09:48:55;12.80;99.90
18506;DHT22;9382;53.242;10.438;2023-03-14T09:51:21;12.90;99.90
18506;DHT22;9382;53.242;10.438;2023-03-14T09:53:50;12.90;99.90
18506;DHT22;9382;53.242;10.438;2023-03-14T09:56:20;12.90;99.90
18506;DHT22;9382;53.242;10.438;2023-03-14T09:58:51;12.90;99.90
18506;DHT22;9382;53.242;10.438;2023-03-14T10:01:22;12.90;99.90
18506;DHT22;9382;53.242;10.438;2023-03-14T10:03:51;12.90;99.90
18506;DHT22;9382;53.242;10.438;2023-03-14T10:06:22;12.90;99.90
18506;DHT22;9382;53.242;10.438;2023-03-14T10:08:50;13.00;99.90
18506;DHT22;9382;53.242;10.438;2023-03-14T10:11:19;13.10;99.90
18506;DHT22;9382;53.242;10.438;2023-03-14T10:14:01;13.20;99.90
18506;DHT22;9382;53.242;10.438;2023-03-14T10:16:30;13.20;99.90
18506;DHT22;9382;53.242;10.438;2023-03-14T10:19:02;13.30;99.90
18506;DHT22;9382;53.242;10.438;2023-03-14T10:21:31;13.20;99.90
18506;DHT22;9382;53.242;10.438;2023-03-14T10:24:09;13.10;99.90
18506;DHT22;9382;53.242;10.438;2023-03-14T10:26:38;12.90;99.90
18506;DHT22;9382;53.242;10.438;2023-03-14T10:29:11;12.90;99.90
18506;DHT22;9382;53.242;10.438;2023-03-14T10:31:50;12.70;99.90
18506;DHT22;9382;53.242;10.438;2023-03-14T10:34:22;12.50;99.90
18506;DHT22;9382;53.242;10.438;2023-03-14T10:36:52;12.10;99.90
18506;DHT22;9382;53.242;10.438;2023-03-14T10:39:33;11.70;99.90
18506;DHT22;9382;53.242;10.438;2023-03-14T10:42:13;11.30;99.90
18506;DHT22;9382;53.242;10.438;2023-03-14T10:44:41;10.90;99.90
18506;DHT22;9382;53.242;10.438;2023-03-14T10:47:16;10.60;99.90
18506;DHT22;9382;53.242;10.438;2023-03-14T10:49:44;10.40;99.90
18506;DHT22;9382;53.242;10.438;2023-03-14T10:52:21;10.30;99.90
18506;DHT22;9382;53.242;10.438;2023-03-14T10:54:50;10.20;99.90
18506;DHT22;9382;53.242;10.438;2023-03-14T10:57:21;10.30;99.90
18506;DHT22;9382;53.242;10.438;2023-03-14T10:59:49;10.20;99.90
18506;DHT22;9382;53.242;10.438;2023-03-14T11:02:31;9.90;99.90
18506;DHT22;9382;53.242;10.438;2023-03-14T11:05:07;9.60;99.90
18506;DHT22;9382;53.242;10.438;2023-03-14T11:07:39;9.30;99.90
18506;DHT22;9382;53.242;10.438;2023-03-14T11:10:14;8.80;99.90
18506;DHT22;9382;53.242;10.438;2023-03-14T11:12:52;8.50;99.90
18506;DHT22;9382;53.242;10.438;2023-03-14T11:15:27;8.30;99.90
18506;DHT22;9382;53.242;10.438;2023-03-14T11:20:52;8.20;99.90
18506;DHT22;9382;53.242;10.438;2023-03-14T11:23:21;8.20;99.90
18506;DHT22;9382;53.242;10.438;2023-03-14T11:25:54;8.20;99.90
18506;DHT22;9382;53.242;10.438;2023-03-14T11:28:30;8.10;99.90
18506;DHT22;9382;53.242;10.438;2023-03-14T11:31:04;8.00;99.90
18506;DHT22;9382;53.242;10.438;2023-03-14T11:33:37;7.70;99.90
18506;DHT22;9382;53.242;10.438;2023-03-14T11:36:07;7.70;99.90
18506;DHT22;9382;53.242;10.438;2023-03-14T11:38:38;7.60;99.90
18506;DHT22;9382;53.242;10.438;2023-03-14T11:41:10;7.60;99.90
18506;DHT22;9382;53.242;10.438;2023-03-14T11:43:40;7.50;99.90
18506;DHT22;9382;53.242;10.438;2023-03-14T11:46:10;7.40;99.90
18506;DHT22;9382;53.242;10.438;2023-03-14T11:48:44;7.20;99.90
18506;DHT22;9382;53.242;10.438;2023-03-14T11:51:17;7.00;99.90
18506;DHT22;9382;53.242;10.438;2023-03-14T11:53:53;6.90;99.90
18506;DHT22;9382;53.242;10.438;2023-03-14T11:56:26;6.80;99.90
18506;DHT22;9382;53.242;10.438;2023-03-14T11:58:58;6.80;99.90
18506;DHT22;9382;53.242;10.438;2023-03-14T12:01:31;6.60;99.90
18506;DHT22;9382;53.242;10.438;2023-03-14T12:04:05;6.50;99.90
18506;DHT22;9382;53.242;10.438;2023-03-14T12:06:47;6.40;99.90
18506;DHT22;9382;53.242;10.438;2023-03-14T12:09:15;6.40;99.90
18506;DHT22;9382;53.242;10.438;2023-03-14T12:11:46;6.40;99.90
18506;DHT22;9382;53.242;10.438;2023-03-14T12:14:21;6.30;99.90
18506;DHT22;9382;53.242;10.438;2023-03-14T12:16:48;6.30;99.90
18506;DHT22;9382;53.242;10.438;2023-03-14T12:19:28;6.20;99.90
18506;DHT22;9382;53.242;10.438;2023-03-14T12:21:57;6.20;99.90
18506;DHT22;9382;53.242;10.438;2023-03-14T12:24:26;6.10;99.90
18506;DHT22;9382;53.242;10.438;2023-03-14T12:26:56;6.00;99.90
18506;DHT22;9382;53.242;10.438;2023-03-14T12:29:25;5.90;99.90
18506;DHT22;9382;53.242;10.438;2023-03-14T12:32:08;5.70;99.90
18506;DHT22;9382;53.242;10.438;2023-03-14T12:34:39;5.70;99.90
18506;DHT22;9382;53.242;10.438;2023-03-14T12:37:33;5.60;99.90
18506;DHT22;9382;53.242;10.438;2023-03-14T12:40:14;5.50;99.90
18506;DHT22;9382;53.242;10.438;2023-03-14T12:42:56;5.40;99.90
18506;DHT22;9382;53.242;10.438;2023-03-14T12:45:28;5.30;99.90
18506;DHT22;9382;53.242;10.438;2023-03-14T12:48:08;5.40;99.90
18506;DHT22;9382;53.242;10.438;2023-03-14T12:50:40;5.40;99.90
18506;DHT22;9382;53.242;10.438;2023-03-14T12:56:16;5.50;99.90
18506;DHT22;9382;53.242;10.438;2023-03-14T12:59:11;5.50;99.90
18506;DHT22;9382;53.242;10.438;2023-03-14T13:01:48;5.60;99.90
18506;DHT22;9382;53.242;10.438;2023-03-14T13:04:27;5.60;99.90
18506;DHT22;9382;53.242;10.438;2023-03-14T13:06:56;5.60;99.90
18506;DHT22;9382;53.242;10.438;2023-03-14T13:12:50;5.60;99.90
18506;DHT22;9382;53.242;10.438;2023-03-14T13:15:24;5.70;99.90
18506;DHT22;9382;53.242;10.438;2023-03-14T13:17:56;5.70;99.90
18506;DHT22;9382;53.242;10.438;2023-03-14T13:20:29;5.70;99.90
18506;DHT22;9382;53.242;10.438;2023-03-14T13:22:57;5.80;99.90
18506;DHT22;9382;53.242;10.438;2023-03-14T13:25:23;5.90;99.90
18506;DHT22;9382;53.242;10.438;2023-03-14T13:27:52;5.90;99.90
18506;DHT22;9382;53.242;10.438;2023-03-14T13:30:24;6.00;99.90
18506;DHT22;9382;53.242;10.438;2023-03-14T13:32:55;6.10;99.90
18506;DHT22;9382;53.242;10.438;2023-03-14T13:35:25;6.10;99.90
18506;DHT22;9382;53.242;10.438;2023-03-14T13:37:57;6.10;99.90
18506;DHT22;9382;53.242;10.438;2023-03-14T13:40:26;6.10;99.90
18506;DHT22;9382;53.242;10.438;2023-03-14T13:43:15;6.10;99.90
18506;DHT22;9382;53.242;10.438;2023-03-14T13:45:53;6.10;99.90
18506;DHT22;9382;53.242;10.438;2023-03-14T13:48:26;6.00;99.90
18506;DHT22;9382;53.242;10.438;2023-03-14T13:50:56;5.80;99.90
18506;DHT22;9382;53.242;10.438;2023-03-14T13:53:23;5.80;99.90
18506;DHT22;9382;53.242;10.438;2023-03-14T13:55:50;5.80;99.90
18506;DHT22;9382;53.242;10.438;2023-03-14T13:58:24;5.70;99.90
18506;DHT22;9382;53.242;10.438;2023-03-14T14:01:03;5.70;99.90
18506;DHT22;9382;53.242;10.438;2023-03-14T14:03:37;5.90;99.90
18506;DHT22;9382;53.242;10.438;2023-03-14T14:06:10;6.10;99.90
18506;DHT22;9382;53.242;10.438;2023-03-14T14:08:43;6.40;99.90
18506;DHT22;9382;53.242;10.438;2023-03-14T14:11:16;6.80;99.90
18506;DHT22;9382;53.242;10.438;2023-03-14T14:13:44;7.30;99.90
18506;DHT22;9382;53.242;10.438;2023-03-14T14:16:11;7.60;99.90
18506;DHT22;9382;53.242;10.438;2023-03-14T14:18:40;7.90;99.90
18506;DHT22;9382;53.242;10.438;2023-03-14T14:21:08;7.90;99.90
18506;DHT22;9382;53.242;10.438;2023-03-14T14:23:36;7.60;99.90
18506;DHT22;9382;53.242;10.438;2023-03-14T14:26:05;7.40;99.90
18506;DHT22;9382;53.242;10.438;2023-03-14T14:28:34;7.20;99.90
18506;DHT22;9382;53.242;10.438;2023-03-14T14:31:03;7.30;99.90
18506;DHT22;9382;53.242;10.438;2023-03-14T14:33:38;7.30;99.90
18506;DHT22;9382;53.242;10.438;2023-03-14T14:36:22;7.20;99.90
18506;DHT22;9382;53.242;10.438;2023-03-14T14:38:54;7.30;99.90
18506;DHT22;9382;53.242;10.438;2023-03-14T14:41:21;7.00;99.90
18506;DHT22;9382;53.242;10.438;2023-03-14T14:43:48;7.00;99.90
18506;DHT22;9382;53.242;10.438;2023-03-14T14:46:18;6.90;99.90
18506;DHT22;9382;53.242;10.438;2023-03-14T14:48:45;6.80;99.90
18506;DHT22;9382;53.242;10.438;2023-03-14T14:51:25;6.70;99.90
18506;DHT22;9382;53.242;10.438;2023-03-14T14:54:04;6.60;99.90
18506;DHT22;9382;53.242;10.438;2023-03-14T14:56:35;6.50;99.90
18506;DHT22;9382;53.242;10.438;2023-03-14T14:59:04;6.50;99.90
18506;DHT22;9382;53.242;10.438;2023-03-14T15:01:33;6.50;99.90
18506;DHT22;9382;53.242;10.438;2023-03-14T15:04:01;6.50;99.90
18506;DHT22;9382;53.242;10.438;2023-03-14T15:06:30;6.50;99.90
18506;DHT22;9382;53.242;10.438;2023-03-14T15:08:57;6.40;99.90
18506;DHT22;9382;53.242;10.438;2023-03-14T15:11:26;6.40;99.90
18506;DHT22;9382;53.242;10.438;2023-03-14T15:13:53;6.30;99.90
18506;DHT22;9382;53.242;10.438;2023-03-14T15:16:21;6.20;99.90
18506;DHT22;9382;53.242;10.438;2023-03-14T15:18:53;6.10;99.90
18506;DHT22;9382;53.242;10.438;2023-03-14T15:21:22;6.10;99.90
18506;DHT22;9382;53.242;10.438;2023-03-14T15:23:50;6.10;99.90
18506;DHT22;9382;53.242;10.438;2023-03-14T15:26:18;6.10;99.90
18506;DHT22;9382;53.242;10.438;2023-03-14T15:28:46;6.10;99.90
18506;DHT22;9382;53.242;10.438;2023-03-14T15:31:14;6.10;99.90
18506;DHT22;9382;53.242;10.438;2023-03-14T15:33:42;6.10;99.90
18506;DHT22;9382;53.242;10.438;2023-03-14T15:36:19;6.00;99.90
18506;DHT22;9382;53.242;10.438;2023-03-14T15:38:47;6.00;99.90
18506;DHT22;9382;53.242;10.438;2023-03-14T15:41:15;5.90;99.90
18506;DHT22;9382;53.242;10.438;2023-03-14T15:43:42;5.90;99.90
18506;DHT22;9382;53.242;10.438;2023-03-14T15:46:09;5.90;99.90
18506;DHT22;9382;53.242;10.438;2023-03-14T15:48:35;5.90;99.90
18506;DHT22;9382;53.242;10.438;2023-03-14T15:51:02;5.80;99.90
18506;DHT22;9382;53.242;10.438;2023-03-14T15:53:29;5.90;99.90
18506;DHT22;9382;53.242;10.438;2023-03-14T15:55:56;6.00;99.90